createdAt,value
2023-02-24T00:00:18.113Z,5.46
2023-02-24T00:01:18.375Z,5.45
2023-02-24T00:02:18.135Z,5.45
2023-02-24T00:03:18.107Z,5.45
2023-02-24T00:04:18.050Z,5.44
2023-02-24T00:05:18.068Z,5.44
2023-02-24T00:06:18.045Z,5.44
2023-02-24T00:07:18.031Z,5.44
2023-02-24T00:08:18.020Z,5.44
2023-02-24T00:09:17.999Z,5.43
2023-02-24T00:10:17.990Z,5.43
2023-02-24T00:11:18.569Z,5.43
2023-02-24T00:12:17.953Z,5.43
2023-02-24T00:13:17.936Z,5.42
2023-02-24T00:14:17.953Z,5.42
2023-02-24T00:15:17.894Z,5.42
2023-02-24T00:16:18.026Z,5.41
2023-02-24T00:17:17.956Z,5.41
2023-02-24T00:18:17.893Z,5.41
2023-02-24T00:19:17.879Z,5.40
2023-02-24T00:20:17.850Z,5.40
2023-02-24T00:21:17.906Z,5.39
2023-02-24T00:22:17.828Z,5.38
2023-02-24T00:23:17.788Z,5.38
2023-02-24T00:24:17.820Z,5.37
2023-02-24T00:25:17.775Z,5.36
2023-02-24T00:26:17.786Z,5.36
2023-02-24T00:27:17.781Z,5.36
2023-02-24T00:28:17.751Z,5.36
2023-02-24T00:29:17.730Z,5.36
2023-02-24T00:30:17.707Z,5.36
2023-02-24T00:31:17.792Z,5.35
2023-02-24T00:32:17.893Z,5.35
2023-02-24T00:33:17.665Z,5.34
2023-02-24T00:34:17.785Z,5.34
2023-02-24T00:35:17.674Z,5.34
2023-02-24T00:36:17.640Z,5.33
2023-02-24T00:37:17.662Z,5.33
2023-02-24T00:38:17.609Z,5.33
2023-02-24T00:39:17.599Z,5.33
2023-02-24T00:40:17.596Z,5.32
2023-02-24T00:41:17.831Z,5.32
2023-02-24T00:42:17.626Z,5.31
2023-02-24T00:43:17.552Z,5.31
2023-02-24T00:44:17.559Z,5.30
2023-02-24T00:45:17.508Z,5.30
2023-02-24T00:46:17.621Z,5.29
2023-02-24T00:47:17.639Z,5.28
2023-02-24T00:48:17.531Z,5.26
2023-02-24T00:49:17.585Z,5.25
2023-02-24T00:50:17.498Z,5.23
2023-02-24T00:51:17.442Z,5.23
2023-02-24T00:52:17.435Z,5.22
2023-02-24T00:53:17.425Z,5.22
2023-02-24T00:54:17.485Z,5.22
2023-02-24T00:55:17.420Z,5.22
2023-02-24T00:56:17.409Z,5.21
2023-02-24T00:57:17.385Z,5.21
2023-02-24T00:58:17.348Z,5.20
2023-02-24T00:59:17.368Z,5.20
2023-02-24T01:00:17.331Z,5.20
2023-02-24T01:01:17.409Z,5.20
2023-02-24T01:02:17.316Z,5.19
2023-02-24T01:03:17.275Z,5.19
2023-02-24T01:04:17.349Z,5.19
2023-02-24T01:05:17.309Z,5.19
2023-02-24T01:06:17.261Z,5.19
2023-02-24T01:07:17.306Z,5.18
2023-02-24T01:08:17.262Z,5.17
2023-02-24T01:09:17.334Z,5.16
2023-02-24T01:10:17.222Z,5.15
2023-02-24T01:11:17.199Z,5.13
2023-02-24T01:12:17.282Z,5.11
2023-02-24T01:13:17.162Z,5.09
2023-02-24T01:14:17.154Z,5.06
2023-02-24T01:15:17.140Z,5.04
2023-02-24T01:16:17.230Z,5.01
2023-02-24T01:17:17.117Z,4.98
2023-02-24T01:18:17.102Z,4.96
2023-02-24T01:19:17.113Z,4.93
2023-02-24T01:20:17.075Z,4.90
2023-02-24T01:21:17.079Z,4.87
2023-02-24T01:22:17.085Z,4.82
2023-02-24T01:23:17.075Z,4.76
2023-02-24T01:24:17.021Z,4.69
2023-02-24T01:25:16.993Z,4.63
2023-02-24T01:26:17.012Z,4.59
2023-02-24T01:27:16.989Z,4.55
2023-02-24T01:28:16.982Z,4.50
2023-02-24T01:29:16.944Z,4.44
2023-02-24T01:30:16.963Z,4.38
2023-02-24T01:31:17.091Z,4.33
2023-02-24T01:32:17.385Z,4.30
2023-02-24T01:33:17.006Z,4.26
2023-02-24T01:34:16.894Z,4.21
2023-02-24T01:35:16.868Z,4.17
2023-02-24T01:36:16.853Z,4.14
2023-02-24T01:37:16.848Z,4.11
2023-02-24T01:38:16.854Z,4.07
2023-02-24T01:39:16.849Z,4.04
2023-02-24T01:40:16.828Z,4.02
2023-02-24T01:41:16.852Z,4.00
2023-02-24T01:42:16.786Z,3.98
2023-02-24T01:43:16.753Z,3.96
2023-02-24T01:44:16.772Z,3.94
2023-02-24T01:45:16.793Z,3.92
2023-02-24T01:46:16.777Z,3.91
2023-02-24T01:47:16.710Z,3.89
2023-02-24T01:48:16.724Z,3.88
2023-02-24T01:49:16.700Z,3.88
2023-02-24T01:50:16.753Z,3.86
2023-02-24T01:51:16.685Z,3.85
2023-02-24T01:52:16.711Z,3.83
2023-02-24T01:53:16.632Z,3.82
2023-02-24T01:54:16.638Z,3.80
2023-02-24T01:55:16.633Z,3.78
2023-02-24T01:56:16.613Z,3.76
2023-02-24T01:57:16.595Z,3.75
2023-02-24T01:58:16.619Z,3.74
2023-02-24T01:59:16.572Z,3.73
2023-02-24T02:00:16.574Z,3.71
2023-02-24T02:01:16.562Z,3.70
2023-02-24T02:02:16.692Z,3.68
2023-02-24T02:03:16.516Z,3.67
2023-02-24T02:04:16.515Z,3.65
2023-02-24T02:05:16.515Z,3.64
2023-02-24T02:06:16.483Z,3.61
2023-02-24T02:07:16.476Z,3.60
2023-02-24T02:08:16.437Z,3.58
2023-02-24T02:09:16.449Z,3.56
2023-02-24T02:10:16.436Z,3.54
2023-02-24T02:11:16.455Z,3.51
2023-02-24T02:12:16.417Z,3.49
2023-02-24T02:13:16.391Z,3.47
2023-02-24T02:14:16.372Z,3.46
2023-02-24T02:15:16.365Z,3.44
2023-02-24T02:16:16.359Z,3.42
2023-02-24T02:17:16.326Z,3.41
2023-02-24T02:18:16.347Z,3.39
2023-02-24T02:19:16.370Z,3.37
2023-02-24T02:20:16.323Z,3.35
2023-02-24T02:21:16.286Z,3.33
2023-02-24T02:22:16.279Z,3.32
2023-02-24T02:23:16.304Z,3.30
2023-02-24T02:24:16.264Z,3.28
2023-02-24T02:25:16.245Z,3.26
2023-02-24T02:26:16.250Z,3.25
2023-02-24T02:27:16.206Z,3.23
2023-02-24T02:28:16.215Z,3.21
2023-02-24T02:29:16.182Z,3.18
2023-02-24T02:30:16.166Z,3.16
2023-02-24T02:31:16.285Z,3.14
2023-02-24T02:32:16.219Z,3.12
2023-02-24T02:33:16.123Z,3.11
2023-02-24T02:34:16.107Z,3.10
2023-02-24T02:35:16.095Z,3.09
2023-02-24T02:36:16.108Z,3.08
2023-02-24T02:37:16.105Z,3.07
2023-02-24T02:38:16.099Z,3.06
2023-02-24T02:39:16.046Z,3.05
2023-02-24T02:40:16.075Z,3.04
2023-02-24T02:41:16.021Z,3.04
2023-02-24T02:42:16.034Z,3.04
2023-02-24T02:43:15.993Z,3.03
2023-02-24T02:44:16.011Z,3.02
2023-02-24T02:45:15.957Z,3.01
2023-02-24T02:46:16.050Z,2.99
2023-02-24T02:47:15.939Z,2.97
2023-02-24T02:48:15.947Z,2.96
2023-02-24T02:49:15.898Z,2.95
2023-02-24T02:50:15.926Z,2.95
2023-02-24T02:51:15.906Z,2.94
2023-02-24T02:52:15.858Z,2.93
2023-02-24T02:53:15.875Z,2.91
2023-02-24T02:54:15.861Z,2.89
2023-02-24T02:55:15.840Z,2.88
2023-02-24T02:56:15.831Z,2.86
2023-02-24T02:57:15.808Z,2.84
2023-02-24T02:58:15.775Z,2.82
2023-02-24T02:59:15.777Z,2.80
2023-02-24T03:00:15.794Z,2.79
2023-02-24T03:01:15.825Z,2.77
2023-02-24T03:02:15.763Z,2.75
2023-02-24T03:03:15.733Z,2.73
2023-02-24T03:04:15.708Z,2.71
2023-02-24T03:05:15.713Z,2.70
2023-02-24T03:06:15.718Z,2.68
2023-02-24T03:07:15.676Z,2.66
2023-02-24T03:08:15.658Z,2.63
2023-02-24T03:09:15.650Z,2.61
2023-02-24T03:10:15.687Z,2.59
2023-02-24T03:11:15.640Z,2.57
2023-02-24T03:12:15.657Z,2.56
2023-02-24T03:13:15.595Z,2.55
2023-02-24T03:14:15.574Z,2.54
2023-02-24T03:15:15.570Z,2.54
2023-02-24T03:16:15.595Z,2.53
2023-02-24T03:17:15.539Z,2.52
2023-02-24T03:18:15.555Z,2.51
2023-02-24T03:19:15.544Z,2.50
2023-02-24T03:20:15.624Z,2.50
2023-02-24T03:21:15.497Z,2.49
2023-02-24T03:22:15.510Z,2.48
2023-02-24T03:23:15.466Z,2.47
2023-02-24T03:24:15.491Z,2.46
2023-02-24T03:25:15.476Z,2.45
2023-02-24T03:26:15.467Z,2.44
2023-02-24T03:27:15.408Z,2.43
2023-02-24T03:28:15.389Z,2.42
2023-02-24T03:29:15.395Z,2.41
2023-02-24T03:30:15.427Z,2.40
2023-02-24T03:31:15.378Z,2.40
2023-02-24T03:32:15.537Z,2.39
2023-02-24T03:33:15.349Z,2.38
2023-02-24T03:34:15.305Z,2.37
2023-02-24T03:35:15.318Z,2.36
2023-02-24T03:36:15.285Z,2.35
2023-02-24T03:37:15.343Z,2.33
2023-02-24T03:38:15.266Z,2.32
2023-02-24T03:39:15.271Z,2.32
2023-02-24T03:40:15.243Z,2.31
2023-02-24T03:41:15.220Z,2.31
2023-02-24T03:42:15.195Z,2.31
2023-02-24T03:43:16.344Z,2.31
2023-02-24T03:44:15.195Z,2.30
2023-02-24T03:45:15.183Z,2.30
2023-02-24T03:46:15.220Z,2.29
2023-02-24T03:47:15.162Z,2.28
2023-02-24T03:48:15.146Z,2.27
2023-02-24T03:49:15.105Z,2.26
2023-02-24T03:50:15.115Z,2.25
2023-02-24T03:51:15.084Z,2.23
2023-02-24T03:52:15.670Z,2.21
2023-02-24T03:53:15.072Z,2.19
2023-02-24T03:54:15.066Z,2.17
2023-02-24T03:55:15.037Z,2.16
2023-02-24T03:56:15.022Z,2.16
2023-02-24T03:57:15.021Z,2.17
2023-02-24T03:58:15.040Z,2.17
2023-02-24T03:59:14.988Z,2.17
2023-02-24T04:00:14.996Z,2.16
2023-02-24T04:01:15.010Z,2.16
2023-02-24T04:02:15.008Z,2.15
2023-02-24T04:03:14.949Z,2.15
2023-02-24T04:04:15.027Z,2.16
2023-02-24T04:05:15.057Z,2.17
2023-02-24T04:06:14.892Z,2.17
2023-02-24T04:07:14.936Z,2.17
2023-02-24T04:08:14.865Z,2.17
2023-02-24T04:09:14.872Z,2.16
2023-02-24T04:10:14.848Z,2.17
2023-02-24T04:11:14.861Z,2.17
2023-02-24T04:12:14.848Z,2.17
2023-02-24T04:13:14.789Z,2.18
2023-02-24T04:14:14.793Z,2.17
2023-02-24T04:15:14.775Z,2.17
2023-02-24T04:16:14.788Z,2.17
2023-02-24T04:17:14.750Z,2.16
2023-02-24T04:18:14.729Z,2.16
2023-02-24T04:19:14.730Z,2.17
2023-02-24T04:20:14.732Z,2.17
2023-02-24T04:21:14.719Z,2.17
2023-02-24T04:22:14.663Z,2.18
2023-02-24T04:23:14.678Z,2.19
2023-02-24T04:24:14.647Z,2.19
2023-02-24T04:25:14.631Z,2.19
2023-02-24T04:26:14.624Z,2.20
2023-02-24T04:27:14.625Z,2.20
2023-02-24T04:28:14.594Z,2.21
2023-02-24T04:29:14.576Z,2.22
2023-02-24T04:30:14.606Z,2.23
2023-02-24T04:31:14.730Z,2.23
2023-02-24T04:32:14.712Z,2.23
2023-02-24T04:33:14.548Z,2.23
2023-02-24T04:34:14.520Z,2.22
2023-02-24T04:35:14.545Z,2.22
2023-02-24T04:36:14.486Z,2.22
2023-02-24T04:37:14.527Z,2.22
2023-02-24T04:38:14.476Z,2.22
2023-02-24T04:39:14.452Z,2.22
2023-02-24T04:40:14.475Z,2.23
2023-02-24T04:41:14.423Z,2.23
2023-02-24T04:42:14.431Z,2.22
2023-02-24T04:43:14.444Z,2.22
2023-02-24T04:44:14.372Z,2.21
2023-02-24T04:45:14.401Z,2.20
2023-02-24T04:46:14.367Z,2.20
2023-02-24T04:47:14.357Z,2.20
2023-02-24T04:48:14.370Z,2.19
2023-02-24T04:49:14.328Z,2.20
2023-02-24T04:50:14.297Z,2.21
2023-02-24T04:51:14.306Z,2.22
2023-02-24T04:52:14.292Z,2.23
2023-02-24T04:53:14.310Z,2.23
2023-02-24T04:54:14.256Z,2.23
2023-02-24T04:55:14.238Z,2.23
2023-02-24T04:56:14.250Z,2.23
2023-02-24T04:57:14.224Z,2.22
2023-02-24T04:58:14.252Z,2.22
2023-02-24T04:59:14.219Z,2.21
2023-02-24T05:00:14.183Z,2.20
2023-02-24T05:01:14.174Z,2.20
2023-02-24T05:02:14.168Z,2.19
2023-02-24T05:03:14.160Z,2.19
2023-02-24T05:04:14.339Z,2.19
2023-02-24T05:05:14.133Z,2.19
2023-02-24T05:06:14.125Z,2.19
2023-02-24T05:07:14.097Z,2.19
2023-02-24T05:08:14.075Z,2.19
2023-02-24T05:09:14.125Z,2.19
2023-02-24T05:10:14.038Z,2.19
2023-02-24T05:11:14.037Z,2.19
2023-02-24T05:12:14.158Z,2.18
2023-02-24T05:13:14.026Z,2.17
2023-02-24T05:14:13.978Z,2.16
2023-02-24T05:15:13.997Z,2.16
2023-02-24T05:16:14.116Z,2.16
2023-02-24T05:17:13.958Z,2.16
2023-02-24T05:18:14.133Z,2.16
2023-02-24T05:19:14.220Z,2.16
2023-02-24T05:20:13.937Z,2.16
2023-02-24T05:21:13.908Z,2.16
2023-02-24T05:22:13.892Z,2.15
2023-02-24T05:23:13.889Z,2.14
2023-02-24T05:24:13.876Z,2.13
2023-02-24T05:25:13.857Z,2.12
2023-02-24T05:26:13.838Z,2.11
2023-02-24T05:27:13.868Z,2.10
2023-02-24T05:28:13.796Z,2.09
2023-02-24T05:29:13.799Z,2.08
2023-02-24T05:30:13.798Z,2.07
2023-02-24T05:31:13.894Z,2.06
2023-02-24T05:32:13.897Z,2.06
2023-02-24T05:33:13.779Z,2.05
2023-02-24T05:34:13.715Z,2.06
2023-02-24T05:35:13.727Z,2.06
2023-02-24T05:36:13.705Z,2.06
2023-02-24T05:37:13.728Z,2.05
2023-02-24T05:38:13.695Z,2.05
2023-02-24T05:39:13.671Z,2.04
2023-02-24T05:40:13.628Z,2.04
2023-02-24T05:41:13.629Z,2.04
2023-02-24T05:42:13.628Z,2.04
2023-02-24T05:43:13.637Z,2.03
2023-02-24T05:44:13.601Z,2.03
2023-02-24T05:45:13.592Z,2.02
2023-02-24T05:46:13.628Z,2.02
2023-02-24T05:47:13.566Z,2.02
2023-02-24T05:48:13.553Z,2.03
2023-02-24T05:49:13.540Z,2.04
2023-02-24T05:50:13.502Z,2.04
2023-02-24T05:51:13.518Z,2.03
2023-02-24T05:52:13.494Z,2.03
2023-02-24T05:53:13.510Z,2.03
2023-02-24T05:54:13.480Z,2.03
2023-02-24T05:55:13.461Z,2.03
2023-02-24T05:56:13.446Z,2.04
2023-02-24T05:57:13.465Z,2.04
2023-02-24T05:58:13.397Z,2.04
2023-02-24T05:59:13.406Z,2.04
2023-02-24T06:00:13.393Z,2.04
2023-02-24T06:01:13.396Z,2.04
2023-02-24T06:02:13.423Z,2.03
2023-02-24T06:03:13.385Z,2.02
2023-02-24T06:04:13.343Z,2.02
2023-02-24T06:05:13.365Z,2.02
2023-02-24T06:06:13.339Z,2.02
2023-02-24T06:07:13.318Z,2.02
2023-02-24T06:08:13.308Z,2.03
2023-02-24T06:09:13.336Z,2.03
2023-02-24T06:10:13.270Z,2.05
2023-02-24T06:11:13.230Z,2.06
2023-02-24T06:12:13.219Z,2.06
2023-02-24T06:13:13.223Z,2.06
2023-02-24T06:14:13.235Z,2.06
2023-02-24T06:15:13.184Z,2.06
2023-02-24T06:16:13.207Z,2.06
2023-02-24T06:17:13.185Z,2.06
2023-02-24T06:18:13.197Z,2.06
2023-02-24T06:19:13.160Z,2.06
2023-02-24T06:20:13.142Z,2.06
2023-02-24T06:21:13.122Z,2.06
2023-02-24T06:22:13.119Z,2.07
2023-02-24T06:23:13.089Z,2.07
2023-02-24T06:24:13.070Z,2.08
2023-02-24T06:25:13.112Z,2.08
2023-02-24T06:26:13.266Z,2.09
2023-02-24T06:27:13.095Z,2.09
2023-02-24T06:28:13.065Z,2.10
2023-02-24T06:29:13.064Z,2.11
2023-02-24T06:30:13.009Z,2.12
2023-02-24T06:31:13.095Z,2.14
2023-02-24T06:32:13.137Z,2.15
2023-02-24T06:33:12.965Z,2.16
2023-02-24T06:34:13.022Z,2.18
2023-02-24T06:35:12.964Z,2.19
2023-02-24T06:36:12.918Z,2.20
2023-02-24T06:37:12.939Z,2.21
2023-02-24T06:38:12.906Z,2.22
2023-02-24T06:39:12.910Z,2.22
2023-02-24T06:40:12.894Z,2.23
2023-02-24T06:41:12.844Z,2.24
2023-02-24T06:42:12.834Z,2.25
2023-02-24T06:43:12.823Z,2.25
2023-02-24T06:44:12.806Z,2.26
2023-02-24T06:45:12.788Z,2.27
2023-02-24T06:46:12.869Z,2.28
2023-02-24T06:47:12.775Z,2.29
2023-02-24T06:48:12.734Z,2.31
2023-02-24T06:49:12.746Z,2.33
2023-02-24T06:50:12.709Z,2.34
2023-02-24T06:51:12.736Z,2.35
2023-02-24T06:52:12.685Z,2.37
2023-02-24T06:53:12.702Z,2.38
2023-02-24T06:54:12.686Z,2.40
2023-02-24T06:55:12.666Z,2.41
2023-02-24T06:56:12.662Z,2.41
2023-02-24T06:57:12.662Z,2.42
2023-02-24T06:58:12.622Z,2.42
2023-02-24T06:59:12.603Z,2.43
2023-02-24T07:00:12.596Z,2.43
2023-02-24T07:01:12.616Z,2.44
2023-02-24T07:02:12.577Z,2.44
2023-02-24T07:03:12.559Z,2.44
2023-02-24T07:04:12.603Z,2.44
2023-02-24T07:05:12.547Z,2.45
2023-02-24T07:06:12.506Z,2.46
2023-02-24T07:07:12.548Z,2.48
2023-02-24T07:08:12.505Z,2.50
2023-02-24T07:09:12.517Z,2.51
2023-02-24T07:10:12.490Z,2.51
2023-02-24T07:11:12.454Z,2.52
2023-02-24T07:12:12.535Z,2.53
2023-02-24T07:13:12.453Z,2.55
2023-02-24T07:14:12.441Z,2.57
2023-02-24T07:15:12.418Z,2.60
2023-02-24T07:16:12.422Z,2.63
2023-02-24T07:17:12.414Z,2.66
2023-02-24T07:18:12.368Z,2.68
2023-02-24T07:19:12.447Z,2.68
2023-02-24T07:20:12.370Z,2.67
2023-02-24T07:21:12.359Z,2.65
2023-02-24T07:22:12.347Z,2.65
2023-02-24T07:23:12.317Z,2.64
2023-02-24T07:24:12.281Z,2.63
2023-02-24T07:25:12.281Z,2.64
2023-02-24T07:26:12.310Z,2.64
2023-02-24T07:27:12.283Z,2.65
2023-02-24T07:28:12.234Z,2.65
2023-02-24T07:29:12.237Z,2.65
2023-02-24T07:30:12.278Z,2.63
2023-02-24T07:31:12.334Z,2.61
2023-02-24T07:32:12.346Z,2.61
2023-02-24T07:33:12.170Z,2.61
2023-02-24T07:34:12.151Z,2.63
2023-02-24T07:35:12.140Z,2.64
2023-02-24T07:36:12.184Z,2.64
2023-02-24T07:37:12.134Z,2.63
2023-02-24T07:38:12.111Z,2.64
2023-02-24T07:39:12.085Z,2.65
2023-02-24T07:40:12.079Z,2.66
2023-02-24T07:41:12.092Z,2.67
2023-02-24T07:42:12.035Z,2.68
2023-02-24T07:43:12.112Z,2.69
2023-02-24T07:44:12.659Z,2.70
2023-02-24T07:45:12.115Z,2.71
2023-02-24T07:46:12.034Z,2.72
2023-02-24T07:47:12.001Z,2.73
2023-02-24T07:48:12.015Z,2.72
2023-02-24T07:49:11.952Z,2.73
2023-02-24T07:50:11.936Z,2.73
2023-02-24T07:51:11.962Z,2.74
2023-02-24T07:52:11.958Z,2.74
2023-02-24T07:53:11.907Z,2.75
2023-02-24T07:54:11.982Z,2.76
2023-02-24T07:55:11.891Z,2.76
2023-02-24T07:56:11.869Z,2.77
2023-02-24T07:57:11.883Z,2.78
2023-02-24T07:58:11.870Z,2.79
2023-02-24T07:59:11.855Z,2.81
2023-02-24T08:00:14.355Z,2.83
2023-02-24T08:01:11.823Z,2.85
2023-02-24T08:02:11.831Z,2.85
2023-02-24T08:03:11.796Z,2.87
2023-02-24T08:04:11.846Z,2.88
2023-02-24T08:05:11.810Z,2.89
2023-02-24T08:06:11.745Z,2.86
2023-02-24T08:07:11.706Z,2.82
2023-02-24T08:08:11.704Z,2.80
2023-02-24T08:09:11.695Z,2.80
2023-02-24T08:10:11.674Z,2.81
2023-02-24T08:11:11.674Z,2.82
2023-02-24T08:12:11.653Z,2.85
2023-02-24T08:13:11.642Z,2.88
2023-02-24T08:14:11.680Z,2.90
2023-02-24T08:15:11.619Z,2.93
2023-02-24T08:16:11.656Z,2.97
2023-02-24T08:17:11.601Z,3.02
2023-02-24T08:18:11.613Z,3.07
2023-02-24T08:19:11.565Z,3.11
2023-02-24T08:20:11.557Z,3.14
2023-02-24T08:21:11.543Z,3.16
2023-02-24T08:22:11.533Z,3.17
2023-02-24T08:23:11.528Z,3.18
2023-02-24T08:24:11.505Z,3.19
2023-02-24T08:25:11.486Z,3.18
2023-02-24T08:26:11.574Z,3.17
2023-02-24T08:27:11.481Z,3.16
2023-02-24T08:28:11.920Z,3.14
2023-02-24T08:29:11.420Z,3.11
2023-02-24T08:30:11.451Z,3.07
2023-02-24T08:31:11.495Z,3.03
2023-02-24T08:32:11.489Z,2.99
2023-02-24T08:33:11.429Z,2.96
2023-02-24T08:34:11.387Z,2.94
2023-02-24T08:35:11.337Z,2.92
2023-02-24T08:36:11.351Z,2.91
2023-02-24T08:37:11.343Z,2.89
2023-02-24T08:38:11.339Z,2.88
2023-02-24T08:39:11.360Z,2.88
2023-02-24T08:40:11.306Z,2.90
2023-02-24T08:41:11.290Z,2.90
2023-02-24T08:42:11.265Z,2.90
2023-02-24T08:43:11.253Z,2.89
2023-02-24T08:44:11.241Z,2.88
2023-02-24T08:45:11.235Z,2.88
2023-02-24T08:46:11.305Z,2.88
2023-02-24T08:47:11.230Z,2.88
2023-02-24T08:48:11.197Z,2.88
2023-02-24T08:49:11.199Z,2.90
2023-02-24T08:50:11.280Z,2.90
2023-02-24T08:51:11.238Z,2.91
2023-02-24T08:52:11.256Z,2.92
2023-02-24T08:53:11.237Z,2.96
2023-02-24T08:54:11.618Z,3.00
2023-02-24T08:55:11.123Z,3.01
2023-02-24T08:56:11.115Z,3.02
2023-02-24T08:57:11.057Z,3.04
2023-02-24T08:58:11.095Z,3.06
2023-02-24T08:59:11.074Z,3.07
2023-02-24T09:00:11.089Z,3.09
2023-02-24T09:01:11.081Z,3.13
2023-02-24T09:02:11.005Z,3.15
2023-02-24T09:03:11.010Z,3.16
2023-02-24T09:04:11.058Z,3.18
2023-02-24T09:05:14.422Z,3.20
2023-02-24T09:06:11.098Z,3.24
2023-02-24T09:07:12.057Z,3.31
2023-02-24T09:08:10.956Z,3.37
2023-02-24T09:09:10.949Z,3.43
2023-02-24T09:10:10.996Z,3.52
2023-02-24T09:11:10.922Z,3.59
2023-02-24T09:12:11.037Z,3.63
2023-02-24T09:13:11.010Z,3.66
2023-02-24T09:14:21.141Z,3.68
2023-02-24T09:15:10.844Z,3.68
2023-02-24T09:16:10.863Z,3.70
2023-02-24T09:17:10.889Z,3.71
2023-02-24T09:18:10.826Z,3.72
2023-02-24T09:19:10.835Z,3.76
2023-02-24T09:20:10.830Z,3.83
2023-02-24T09:21:10.806Z,3.87
2023-02-24T09:22:20.792Z,3.87
2023-02-24T09:23:10.741Z,3.87
2023-02-24T09:24:10.746Z,3.90
2023-02-24T09:25:10.720Z,3.95
2023-02-24T09:26:10.758Z,4.02
2023-02-24T09:27:10.703Z,4.09
2023-02-24T09:28:10.722Z,4.12
2023-02-24T09:29:10.684Z,4.14
2023-02-24T09:30:10.646Z,4.16
2023-02-24T09:31:10.789Z,4.15
2023-02-24T09:32:10.840Z,4.13
2023-02-24T09:33:10.850Z,4.09
2023-02-24T09:34:10.605Z,4.08
2023-02-24T09:35:10.620Z,4.08
2023-02-24T09:36:10.769Z,4.06
2023-02-24T09:37:10.574Z,3.97
2023-02-24T09:38:10.816Z,3.88
2023-02-24T09:39:10.586Z,3.81
2023-02-24T09:40:10.602Z,3.74
2023-02-24T09:41:18.838Z,3.69
2023-02-24T09:42:10.551Z,3.68
2023-02-24T09:43:10.570Z,3.70
2023-02-24T09:44:10.547Z,3.72
2023-02-24T09:45:10.487Z,3.76
2023-02-24T09:46:10.530Z,3.81
2023-02-24T09:47:10.424Z,3.85
2023-02-24T09:48:10.469Z,3.87
2023-02-24T09:49:10.424Z,3.90
2023-02-24T09:50:10.370Z,3.93
2023-02-24T09:51:10.437Z,3.92
2023-02-24T09:52:10.391Z,3.87
2023-02-24T09:53:11.426Z,3.83
2023-02-24T09:54:10.355Z,3.80
2023-02-24T09:55:10.305Z,3.78
2023-02-24T09:56:10.333Z,3.79
2023-02-24T09:57:10.334Z,3.78
2023-02-24T09:58:10.290Z,3.77
2023-02-24T09:59:10.475Z,3.79
2023-02-24T10:00:10.289Z,3.82
2023-02-24T10:01:10.273Z,3.85
2023-02-24T10:02:10.284Z,3.88
2023-02-24T10:03:10.248Z,3.90
2023-02-24T10:04:20.219Z,3.92
2023-02-24T10:05:10.311Z,3.95
2023-02-24T10:06:10.232Z,3.95
2023-02-24T10:07:10.151Z,3.95
2023-02-24T10:08:10.180Z,3.99
2023-02-24T10:09:10.198Z,4.03
2023-02-24T10:10:10.130Z,4.03
2023-02-24T10:11:10.217Z,4.06
2023-02-24T10:12:10.138Z,4.09
2023-02-24T10:13:10.110Z,4.11
2023-02-24T10:14:10.125Z,4.14
2023-02-24T10:15:10.144Z,4.17
2023-02-24T10:16:10.121Z,4.19
2023-02-24T10:17:10.040Z,4.19
2023-02-24T10:18:10.068Z,4.15
2023-02-24T10:19:09.987Z,4.13
2023-02-24T10:20:10.012Z,4.17
2023-02-24T10:21:10.120Z,4.24
2023-02-24T10:22:09.993Z,4.29
2023-02-24T10:23:09.962Z,4.33
2023-02-24T10:24:10.004Z,4.36
2023-02-24T10:25:09.932Z,4.38
2023-02-24T10:26:09.968Z,4.41
2023-02-24T10:27:16.830Z,4.39
2023-02-24T10:28:09.918Z,4.40
2023-02-24T10:29:09.926Z,4.44
2023-02-24T10:30:09.953Z,4.50
2023-02-24T10:31:10.939Z,4.55
2023-02-24T10:32:10.126Z,4.51
2023-02-24T10:33:09.852Z,4.42
2023-02-24T10:34:09.833Z,4.38
2023-02-24T10:35:09.805Z,4.42
2023-02-24T10:36:09.807Z,4.47
2023-02-24T10:37:14.081Z,4.51
2023-02-24T10:38:09.770Z,4.55
2023-02-24T10:39:09.750Z,4.58
2023-02-24T10:40:10.287Z,4.61
2023-02-24T10:41:09.920Z,4.64
2023-02-24T10:42:09.758Z,4.67
2023-02-24T10:43:09.729Z,4.72
2023-02-24T10:44:09.672Z,4.77
2023-02-24T10:45:10.002Z,4.77
2023-02-24T10:46:10.214Z,4.74
2023-02-24T10:47:09.673Z,4.74
2023-02-24T10:48:11.810Z,4.72
2023-02-24T10:49:09.671Z,4.73
2023-02-24T10:50:09.672Z,4.75
2023-02-24T10:51:09.595Z,4.77
2023-02-24T10:52:09.621Z,4.81
2023-02-24T10:53:09.606Z,4.81
2023-02-24T10:54:09.647Z,4.79
2023-02-24T10:55:09.562Z,4.78
2023-02-24T10:56:09.550Z,4.77
2023-02-24T10:57:09.506Z,4.77
2023-02-24T10:58:09.510Z,4.75
2023-02-24T10:59:09.490Z,4.73
2023-02-24T11:00:09.474Z,4.73
2023-02-24T11:01:09.474Z,4.72
2023-02-24T11:02:09.525Z,4.71
2023-02-24T11:03:09.454Z,4.69
2023-02-24T11:04:09.469Z,4.67
2023-02-24T11:05:09.387Z,4.66
2023-02-24T11:06:09.484Z,4.63
2023-02-24T11:07:09.372Z,4.61
2023-02-24T11:08:09.379Z,4.62
2023-02-24T11:09:09.373Z,4.64
2023-02-24T11:10:10.481Z,4.65
2023-02-24T11:11:09.312Z,4.66
2023-02-24T11:12:09.331Z,4.67
2023-02-24T11:13:10.549Z,4.65
2023-02-24T11:14:09.294Z,4.59
2023-02-24T11:15:09.359Z,4.47
2023-02-24T11:16:09.352Z,4.34
2023-02-24T11:17:09.353Z,4.21
2023-02-24T11:18:09.304Z,4.10
2023-02-24T11:19:09.236Z,4.02
2023-02-24T11:20:09.242Z,3.98
2023-02-24T11:21:09.197Z,3.95
2023-02-24T11:22:09.258Z,3.93
2023-02-24T11:23:09.249Z,3.93
2023-02-24T11:24:09.169Z,3.94
2023-02-24T11:25:09.161Z,3.93
2023-02-24T11:26:09.159Z,3.90
2023-02-24T11:27:09.135Z,3.83
2023-02-24T11:28:09.114Z,3.69
2023-02-24T11:29:09.170Z,3.55
2023-02-24T11:30:09.132Z,3.43
2023-02-24T11:31:09.238Z,3.34
2023-02-24T11:32:09.345Z,3.24
2023-02-24T11:33:09.036Z,3.13
2023-02-24T11:34:09.430Z,3.03
2023-02-24T11:35:09.470Z,2.95
2023-02-24T11:36:09.011Z,2.88
2023-02-24T11:37:08.985Z,2.82
2023-02-24T11:38:09.321Z,2.78
2023-02-24T11:39:17.643Z,2.76
2023-02-24T11:40:09.460Z,2.76
2023-02-24T11:41:09.434Z,2.75
2023-02-24T11:42:09.314Z,2.71
2023-02-24T11:43:08.946Z,2.65
2023-02-24T11:44:08.908Z,2.58
2023-02-24T11:45:09.483Z,2.52
2023-02-24T11:46:08.903Z,2.44
2023-02-24T11:47:08.848Z,2.36
2023-02-24T11:48:08.859Z,2.30
2023-02-24T11:49:08.818Z,2.28
2023-02-24T11:50:08.818Z,2.27
2023-02-24T11:51:08.873Z,2.25
2023-02-24T11:52:08.815Z,2.21
2023-02-24T11:53:08.774Z,2.19
2023-02-24T11:54:08.778Z,2.17
2023-02-24T11:55:08.766Z,2.14
2023-02-24T11:56:08.781Z,2.13
2023-02-24T11:57:08.756Z,2.12
2023-02-24T11:58:08.752Z,2.12
2023-02-24T11:59:08.708Z,2.12
2023-02-24T12:00:08.707Z,2.10
2023-02-24T12:01:08.679Z,2.07
2023-02-24T12:02:08.662Z,2.04
2023-02-24T12:03:08.749Z,2.01
2023-02-24T12:04:08.626Z,1.98
2023-02-24T12:05:08.695Z,1.96
2023-02-24T12:06:08.690Z,1.96
2023-02-24T12:07:08.630Z,1.98
2023-02-24T12:08:08.589Z,1.98
2023-02-24T12:09:08.624Z,1.98
2023-02-24T12:10:16.587Z,1.99
2023-02-24T12:11:08.602Z,2.01
2023-02-24T12:12:08.584Z,2.00
2023-02-24T12:13:08.666Z,1.98
2023-02-24T12:14:08.520Z,1.93
2023-02-24T12:15:08.526Z,1.87
2023-02-24T12:16:08.552Z,1.82
2023-02-24T12:17:08.496Z,1.81
2023-02-24T12:18:08.501Z,1.79
2023-02-24T12:19:08.540Z,1.78
2023-02-24T12:20:08.522Z,1.77
2023-02-24T12:21:08.442Z,1.73
2023-02-24T12:22:08.446Z,1.69
2023-02-24T12:23:08.402Z,1.65
2023-02-24T12:24:08.992Z,1.63
2023-02-24T12:25:08.399Z,1.63
2023-02-24T12:26:08.404Z,1.63
2023-02-24T12:27:08.447Z,1.65
2023-02-24T12:28:08.328Z,1.67
2023-02-24T12:29:08.343Z,1.66
2023-02-24T12:30:08.310Z,1.64
2023-02-24T12:31:08.390Z,1.63
2023-02-24T12:32:08.526Z,1.64
2023-02-24T12:33:08.256Z,1.63
2023-02-24T12:34:08.251Z,1.61
2023-02-24T12:35:08.238Z,1.60
2023-02-24T12:36:08.223Z,1.61
2023-02-24T12:37:08.192Z,1.62
2023-02-24T12:38:08.190Z,1.61
2023-02-24T12:39:08.177Z,1.59
2023-02-24T12:40:08.206Z,1.59
2023-02-24T12:41:08.136Z,1.60
2023-02-24T12:42:08.111Z,1.63
2023-02-24T12:43:08.130Z,1.64
2023-02-24T12:44:08.091Z,1.65
2023-02-24T12:45:08.111Z,1.65
2023-02-24T12:46:08.147Z,1.64
2023-02-24T12:47:08.081Z,1.63
2023-02-24T12:48:08.057Z,1.62
2023-02-24T12:49:08.028Z,1.63
2023-02-24T12:50:08.054Z,1.63
2023-02-24T12:51:08.023Z,1.61
2023-02-24T12:52:07.981Z,1.58
2023-02-24T12:53:08.009Z,1.55
2023-02-24T12:54:08.127Z,1.54
2023-02-24T12:55:07.977Z,1.53
2023-02-24T12:56:07.955Z,1.54
2023-02-24T12:57:07.963Z,1.55
2023-02-24T12:58:07.894Z,1.53
2023-02-24T12:59:08.034Z,1.50
2023-02-24T13:00:07.885Z,1.48
2023-02-24T13:01:08.134Z,1.47
2023-02-24T13:02:07.925Z,1.44
2023-02-24T13:03:07.884Z,1.40
2023-02-24T13:04:07.844Z,1.38
2023-02-24T13:05:10.192Z,1.38
2023-02-24T13:06:07.898Z,1.38
2023-02-24T13:07:07.861Z,1.38
2023-02-24T13:08:07.847Z,1.39
2023-02-24T13:09:07.799Z,1.40
2023-02-24T13:10:07.768Z,1.41
2023-02-24T13:11:07.959Z,1.42
2023-02-24T13:12:07.771Z,1.45
2023-02-24T13:13:07.741Z,1.47
2023-02-24T13:14:07.719Z,1.46
2023-02-24T13:15:07.700Z,1.47
2023-02-24T13:16:08.159Z,1.47
2023-02-24T13:17:07.696Z,1.48
2023-02-24T13:18:07.817Z,1.49